Time;durP1;ratioP1;P1;durP2;ratioP2;P2;SDS_P1;SDS_P2;PMS_P1;PMS_P2;Temp;Humidity;BMP_temperature;BMP_pressure;BME280_temperature;BME280_humidity;BME280_pressure;Samples;Min_cycle;Max_cycle;Signal;HPM_P1;HPM_P2
2022/10/22 00:02:31;;;;;;;;;;;;;;;;;;8422188;27;28451;-77
2022/10/22 00:06:31;;;;;;;;;;;;;;;;;;8436812;27;28169;-77
2022/10/22 00:10:31;;;;;;;;;;;;;;;;;;8451384;27;28464;-77
2022/10/22 00:14:32;;;;;;;;;;;;;;;;;;8447574;27;27817;-78
2022/10/22 00:18:32;;;;;;;;;;;;;;;;;;8465414;27;28272;-79
2022/10/22 00:22:32;;;;;;;;;;;;;;;;;;8461855;27;28518;-78
2022/10/22 00:26:32;;;;;;;;;;;;;;;;;;8454107;27;28142;-77
2022/10/22 00:30:32;;;;;;;;;;;;;;;;;;8459003;27;28432;-77
2022/10/22 00:34:32;;;;;;;;;;;;;;;;;;8459568;27;28335;-77
2022/10/22 00:38:32;;;;;;;;;;;;;;;;;;8432992;27;28582;-76
2022/10/22 00:42:32;;;;;;;;;;;;;;;;;;8411621;27;28364;-78
2022/10/22 00:46:33;;;;;;;;;;;;;;;;;;8428240;27;28203;-77
2022/10/22 00:50:33;;;;;;;;;;;;;;;;;;8429511;27;29691;-78
2022/10/22 00:54:33;;;;;;;;;;;;;;;;;;8423041;27;27339;-77
2022/10/22 00:58:33;;;;;;;;;;;;;;;;;;8419961;27;28286;-77
2022/10/22 01:02:33;;;;;;;;;;;;;;;;;;8417317;27;28526;-76
2022/10/22 01:06:33;;;;;;;;;;;;;;;;;;8413617;27;28470;-76
2022/10/22 01:10:34;;;;;;;;;;;;;;;;;;8411737;27;27437;-76
2022/10/22 01:14:34;;;;;;;;;;;;;;;;;;8413408;27;27816;-78
2022/10/22 01:18:34;;;;;;;;;;;;;;;;;;8418650;27;28352;-77
2022/10/22 01:22:34;;;;;;;;;;;;;;;;;;8421950;27;27468;-78
2022/10/22 01:26:34;;;;;;;;;;;;;;;;;;8427490;27;28410;-77
2022/10/22 01:30:34;;;;;;;;;;;;;;;;;;8428228;27;28204;-76
2022/10/22 01:34:34;;;;;;;;;;;;;;;;;;8417868;27;27415;-77
2022/10/22 01:38:34;;;;;;;;;;;;;;;;;;8419441;27;28161;-78
2022/10/22 01:42:35;;;;;;;;;;;;;;;;;;8420389;27;28559;-76
2022/10/22 01:46:35;;;;;;;;;;;;;;;;;;8428871;27;28501;-76
2022/10/22 01:50:35;;;;;;;;;;;;;;;;;;8422316;27;29294;-77
2022/10/22 01:54:35;;;;;;;;;;;;;;;;;;8429980;27;28170;-75
2022/10/22 01:58:35;;;;;;;;;;;;;;;;;;8430293;27;28434;-77
2022/10/22 02:02:35;;;;;;;;;;;;;;;;;;8425192;27;28448;-76
2022/10/22 02:06:38;;;;;;;;;;;;;;;;;;8425497;27;28361;-77
2022/10/22 02:10:38;;;;;;;;;;;;;;;;;;8426823;27;27506;-76
2022/10/22 02:14:38;;;;;;;;;;;;;;;;;;8426113;27;29664;-77
2022/10/22 02:18:39;;;;;;;;;;;;;;;;;;8422708;27;28144;-76
2022/10/22 02:22:39;;;;;;;;;;;;;;;;;;8430227;27;28280;-75
2022/10/22 02:26:39;;;;;;;;;;;;;;;;;;8426606;27;27621;-77
2022/10/22 02:30:39;;;;;;;;;;;;;;;;;;8424818;27;29716;-78
2022/10/22 02:34:39;;;;;;;;;;;;;;;;;;8418695;27;29454;-78
2022/10/22 02:38:39;;;;;;;;;;;;;;;;;;8425373;27;28695;-78
2022/10/22 02:42:39;;;;;;;;;;;;;;;;;;8422521;27;28458;-78
2022/10/22 02:46:40;;;;;;;;;;;;;;;;;;8426347;27;28726;-77
2022/10/22 02:50:40;;;;;;;;;;;;;;;;;;8425893;27;27757;-77
2022/10/22 02:54:40;;;;;;;;;;;;;;;;;;8426570;27;30044;-76
2022/10/22 02:58:40;;;;;;;;;;;;;;;;;;8427535;27;27548;-76
2022/10/22 03:02:40;;;;;;;;;;;;;;;;;;8423732;27;28622;-77
2022/10/22 03:06:42;;;;;;;;;;;;;;;;;;8426884;27;27096;-77
2022/10/22 03:10:43;;;;;;;;;;;;;;;;;;8415043;27;28511;-76
2022/10/22 03:14:43;;;;;;;;;;;;;;;;;;8420569;27;27865;-77
2022/10/22 03:18:43;;;;;;;;;;;;;;;;;;8425015;27;27855;-76
2022/10/22 03:22:43;;;;;;;;;;;;;;;;;;8421194;27;27436;-76
2022/10/22 03:26:43;;;;;;;;;;;;;;;;;;8420099;27;28480;-77
2022/10/22 03:30:43;;;;;;;;;;;;;;;;;;8425587;27;27125;-77
2022/10/22 03:34:43;;;;;;;;;;;;;;;;;;8421743;27;27412;-77
2022/10/22 03:38:44;;;;;;;;;;;;;;;;;;8423075;27;27594;-76
2022/10/22 03:42:44;;;;;;;;;;;;;;;;;;8422603;27;27780;-77
2022/10/22 03:46:44;;;;;;;;;;;;;;;;;;8418707;27;27347;-76
2022/10/22 03:50:44;;;;;;;;;;;;;;;;;;8422375;27;28383;-77
2022/10/22 03:54:44;;;;;;;;;;;;;;;;;;8418849;27;29444;-76
2022/10/22 03:58:44;;;;;;;;;;;;;;;;;;8427626;27;28623;-77
2022/10/22 04:02:44;;;;;;;;;;;;;;;;;;8421355;27;28153;-75
2022/10/22 04:06:45;;;;;;;;;;;;;;;;;;8420411;27;27557;-76
2022/10/22 04:10:45;;;;;;;;;;;;;;;;;;8416811;27;27209;-76
2022/10/22 04:14:45;;;;;;;;;;;;;;;;;;8420445;27;29836;-76
2022/10/22 04:18:45;;;;;;;;;;;;;;;;;;8422258;27;27329;-76
2022/10/22 04:22:45;;;;;;;;;;;;;;;;;;8431003;27;28139;-76
2022/10/22 04:26:45;;;;;;;;;;;;;;;;;;8428529;27;28508;-76
2022/10/22 04:30:45;;;;;;;;;;;;;;;;;;8430310;27;27384;-76
2022/10/22 04:34:46;;;;;;;;;;;;;;;;;;8422317;27;28426;-76
2022/10/22 04:38:46;;;;;;;;;;;;;;;;;;8419479;27;27447;-77
2022/10/22 04:42:46;;;;;;;;;;;;;;;;;;8425705;27;27127;-76
2022/10/22 04:46:46;;;;;;;;;;;;;;;;;;8427183;27;28283;-76
2022/10/22 04:50:46;;;;;;;;;;;;;;;;;;8418163;27;27353;-77
2022/10/22 04:54:47;;;;;;;;;;;;;;;;;;8427026;27;28164;-75
2022/10/22 04:58:47;;;;;;;;;;;;;;;;;;8418372;27;27300;-75
2022/10/22 05:02:47;;;;;;;;;;;;;;;;;;8420424;27;28241;-78
2022/10/22 05:06:47;;;;;;;;;;;;;;;;;;8415262;27;28495;-77
2022/10/22 05:10:48;;;;;;;;;;;;;;;;;;8418486;27;28490;-78
2022/10/22 05:14:48;;;;;;;;;;;;;;;;;;8430193;27;28092;-77
2022/10/22 05:18:48;;;;;;;;;;;;;;;;;;8426239;27;29385;-75
2022/10/22 05:22:48;;;;;;;;;;;;;;;;;;8427557;27;28465;-76
2022/10/22 05:26:48;;;;;;;;;;;;;;;;;;8432923;27;27698;-77
2022/10/22 05:30:48;;;;;;;;;;;;;;;;;;8425737;27;27412;-77
2022/10/22 05:34:48;;;;;;;;;;;;;;;;;;8428858;27;28334;-77
2022/10/22 05:38:49;;;;;;;;;;;;;;;;;;8429897;27;28244;-76
2022/10/22 05:42:49;;;;;;;;;;;;;;;;;;8435577;27;27189;-78
2022/10/22 05:46:49;;;;;;;;;;;;;;;;;;8450645;27;27371;-77
2022/10/22 05:50:49;;;;;;;;;;;;;;;;;;8458482;27;28291;-76
2022/10/22 05:54:50;;;;;;;;;;;;;;;;;;8462436;27;27137;-77
2022/10/22 05:58:50;;;;;;;;;;;;;;;;;;8467499;27;28318;-76
2022/10/22 06:02:50;;;;;;;;;;;;;;;;;;8457462;27;28458;-77
2022/10/22 06:06:50;;;;;;;;;;;;;;;;;;8461803;27;27168;-78
2022/10/22 06:10:50;;;;;;;;;;;;;;;;;;8460448;27;27520;-76
2022/10/22 06:14:50;;;;;;;;;;;;;;;;;;8428966;27;27141;-77
2022/10/22 06:18:50;;;;;;;;;;;;;;;;;;8425611;27;27426;-76
2022/10/22 06:22:51;;;;;;;;;;;;;;;;;;8423098;27;27463;-77
2022/10/22 06:26:51;;;;;;;;;;;;;;;;;;8424289;27;27433;-76
2022/10/22 06:30:51;;;;;;;;;;;;;;;;;;8423872;27;28011;-77
2022/10/22 06:34:51;;;;;;;;;;;;;;;;;;8423783;27;27731;-78
2022/10/22 06:38:51;;;;;;;;;;;;;;;;;;8425819;27;28142;-77
2022/10/22 06:42:51;;;;;;;;;;;;;;;;;;8427555;27;28434;-77
2022/10/22 06:46:52;;;;;;;;;;;;;;;;;;8425088;27;27738;-77
2022/10/22 06:50:52;;;;;;;;;;;;;;;;;;8419078;27;27673;-78
2022/10/22 06:54:52;;;;;;;;;;;;;;;;;;8424508;27;28647;-78
2022/10/22 06:58:52;;;;;;;;;;;;;;;;;;8430118;27;28573;-78
2022/10/22 07:02:52;;;;;;;;;;;;;;;;;;8425058;27;27155;-77
2022/10/22 07:06:53;;;;;;;;;;;;;;;;;;8421191;27;28768;-77
2022/10/22 07:10:53;;;;;;;;;;;;;;;;;;8427006;27;28183;-77
2022/10/22 07:14:53;;;;;;;;;;;;;;;;;;8418930;27;27723;-77
2022/10/22 07:18:53;;;;;;;;;;;;;;;;;;8423190;27;27562;-76
2022/10/22 07:22:53;;;;;;;;;;;;;;;;;;8425073;27;28321;-76
2022/10/22 07:26:53;;;;;;;;;;;;;;;;;;8428000;27;27082;-76
2022/10/22 07:30:53;;;;;;;;;;;;;;;;;;8422793;27;27704;-77
2022/10/22 07:34:54;;;;;;;;;;;;;;;;;;8427066;27;27838;-76
2022/10/22 07:38:54;;;;;;;;;;;;;;;;;;8427582;27;28030;-77
2022/10/22 07:42:54;;;;;;;;;;;;;;;;;;8423158;27;27438;-77
2022/10/22 07:46:54;;;;;;;;;;;;;;;;;;8421738;27;29426;-77
2022/10/22 07:50:55;;;;;;;;;;;;;;;;;;8423123;27;29250;-77
2022/10/22 07:54:55;;;;;;;;;;;;;;;;;;8424795;27;27128;-77
2022/10/22 07:58:55;;;;;;;;;;;;;;;;;;8421208;27;27669;-77
2022/10/22 08:02:56;;;;;;;;;;;;;;;;;;8422019;27;27894;-78
2022/10/22 08:06:56;;;;;;;;;;;;;;;;;;8423455;27;28480;-78
2022/10/22 08:10:57;;;;;;;;;;;;;;;;;;8421089;27;28272;-77
2022/10/22 08:14:57;;;;;;;;;;;;;;;;;;8421274;27;27464;-76
2022/10/22 08:18:58;;;;;;;;;;;;;;;;;;8428138;27;27276;-79
2022/10/22 08:22:58;;;;;;;;;;;;;;;;;;8421656;27;28445;-78
2022/10/22 08:26:58;;;;;;;;;;;;;;;;;;8433999;27;29001;-79
2022/10/22 08:30:58;;;;;;;;;;;;;;;;;;8432044;27;28351;-78
2022/10/22 08:34:58;;;;;;;;;;;;;;;;;;8423115;27;28355;-78
2022/10/22 08:38:58;;;;;;;;;;;;;;;;;;8418672;27;27540;-77
2022/10/22 08:42:59;;;;;;;;;;;;;;;;;;8416875;27;27404;-76
2022/10/22 08:46:59;;;;;;;;;;;;;;;;;;8416033;27;27826;-76
2022/10/22 08:50:59;;;;;;;;;;;;;;;;;;8425957;27;27424;-78
2022/10/22 08:54:59;;;;;;;;;;;;;;;;;;8426494;27;27474;-77
2022/10/22 08:58:59;;;;;;;;;;;;;;;;;;8427259;27;27247;-77
2022/10/22 09:02:59;;;;;;;;;;;;;;;;;;8427356;27;28621;-76
2022/10/22 09:07:00;;;;;;;;;;;;;;;;;;8423193;27;27831;-77
2022/10/22 09:11:00;;;;;;;;;;;;;;;;;;8428618;27;28111;-77
2022/10/22 09:15:00;;;;;;;;;;;;;;;;;;8424682;27;28481;-77
2022/10/22 09:19:00;;;;;;;;;;;;;;;;;;8429436;27;28817;-78
2022/10/22 09:23:00;;;;;;;;;;;;;;;;;;8429055;27;29375;-79
2022/10/22 09:27:00;;;;;;;;;;;;;;;;;;8424995;27;28439;-79
2022/10/22 09:31:00;;;;;;;;;;;;;;;;;;8428073;27;27162;-79
2022/10/22 09:35:01;;;;;;;;;;;;;;;;;;8424438;27;27568;-77
2022/10/22 09:39:01;;;;;;;;;;;;;;;;;;8426267;27;27392;-79
2022/10/22 09:43:01;;;;;;;;;;;;;;;;;;8423991;27;27404;-79
2022/10/22 09:47:01;;;;;;;;;;;;;;;;;;8426364;27;29015;-79
2022/10/22 09:51:01;;;;;;;;;;;;;;;;;;8426910;27;29564;-79
2022/10/22 09:55:01;;;;;;;;;;;;;;;;;;8424252;27;28511;-78
2022/10/22 09:59:01;;;;;;;;;;;;;;;;;;8420078;27;29858;-79
2022/10/22 10:03:02;;;;;;;;;;;;;;;;;;8428187;27;27661;-77
2022/10/22 10:07:02;;;;;;;;;;;;;;;;;;8425238;27;27139;-79
2022/10/22 10:11:03;;;;;;;;;;;;;;;;;;8425641;27;28749;-77
2022/10/22 10:15:03;;;;;;;;;;;;;;;;;;8423850;27;27352;-78
2022/10/22 10:19:03;;;;;;;;;;;;;;;;;;8417495;27;29370;-77
2022/10/22 10:23:03;;;;;;;;;;;;;;;;;;8420088;27;29715;-77
2022/10/22 10:27:03;;;;;;;;;;;;;;;;;;8430341;27;28448;-77
2022/10/22 10:31:03;;;;;;;;;;;;;;;;;;8422081;27;28185;-77
2022/10/22 10:35:04;;;;;;;;;;;;;;;;;;8421834;27;28877;-78
2022/10/22 10:39:04;;;;;;;;;;;;;;;;;;8422831;27;28145;-77
2022/10/22 10:43:04;;;;;;;;;;;;;;;;;;8422366;27;28145;-79
2022/10/22 10:47:04;;;;;;;;;;;;;;;;;;8428256;27;28262;-78
2022/10/22 10:51:04;;;;;;;;;;;;;;;;;;8428634;27;28276;-78
2022/10/22 10:55:04;;;;;;;;;;;;;;;;;;8422752;27;28217;-78
2022/10/22 10:59:04;;;;;;;;;;;;;;;;;;8427991;27;28184;-78
2022/10/22 11:03:04;;;;;;;;;;;;;;;;;;8419258;27;27487;-78
2022/10/22 11:07:05;;;;;;;;;;;;;;;;;;8420752;27;27663;-80
2022/10/22 11:11:05;;;;;;;;;;;;;;;;;;8422076;27;28564;-77
2022/10/22 11:15:05;;;;;;;;;;;;;;;;;;8426843;27;27297;-77
2022/10/22 11:19:05;;;;;;;;;;;;;;;;;;8431306;27;27149;-79
2022/10/22 11:23:06;;;;;;;;;;;;;;;;;;8434791;27;28355;-78
2022/10/22 11:27:06;;;;;;;;;;;;;;;;;;8440837;27;28181;-77
2022/10/22 11:31:06;;;;;;;;;;;;;;;;;;8434596;27;28002;-77
2022/10/22 11:35:06;;;;;;;;;;;;;;;;;;8431659;27;27311;-78
2022/10/22 11:39:06;;;;;;;;;;;;;;;;;;8442903;27;28632;-77
2022/10/22 11:43:06;;;;;;;;;;;;;;;;;;8442158;27;28562;-77
2022/10/22 11:47:06;;;;;;;;;;;;;;;;;;8432683;27;27404;-78
2022/10/22 11:51:06;;;;;;;;;;;;;;;;;;8431405;27;28132;-79
2022/10/22 11:55:07;;;;;;;;;;;;;;;;;;8422989;27;28432;-77
2022/10/22 11:59:07;;;;;;;;;;;;;;;;;;8422087;27;28491;-76
2022/10/22 12:03:07;;;;;;;;;;;;;;;;;;8422158;27;28166;-76
2022/10/22 12:07:07;;;;;;;;;;;;;;;;;;8422612;27;27951;-77
2022/10/22 12:11:07;;;;;;;;;;;;;;;;;;8426417;27;28133;-77
2022/10/22 12:15:07;;;;;;;;;;;;;;;;;;8415869;27;28515;-75
2022/10/22 12:19:07;;;;;;;;;;;;;;;;;;8426304;27;28415;-78
2022/10/22 12:23:08;;;;;;;;;;;;;;;;;;8419808;27;27256;-76
2022/10/22 12:27:08;;;;;;;;;;;;;;;;;;8417746;27;29143;-76
2022/10/22 12:31:08;;;;;;;;;;;;;;;;;;8416707;27;28246;-77
2022/10/22 12:35:09;;;;;;;;;;;;;;;;;;8420571;27;28070;-77
2022/10/22 12:39:09;;;;;;;;;;;;;;;;;;8422982;27;28229;-76
2022/10/22 12:43:09;;;;;;;;;;;;;;;;;;8424439;27;28322;-77
2022/10/22 12:47:09;;;;;;;;;;;;;;;;;;8422531;27;28495;-76
2022/10/22 12:51:09;;;;;;;;;;;;;;;;;;8416333;27;27431;-75
2022/10/22 12:55:10;;;;;;;;;;;;;;;;;;8414216;27;27984;-77
2022/10/22 12:59:10;;;;;;;;;;;;;;;;;;8421071;27;29640;-78
2022/10/22 13:03:10;;;;;;;;;;;;;;;;;;8416852;27;30457;-76
2022/10/22 13:07:10;;;;;;;;;;;;;;;;;;8422727;27;27494;-76
2022/10/22 13:11:10;;;;;;;;;;;;;;;;;;8416360;27;27421;-77
2022/10/22 13:15:10;;;;;;;;;;;;;;;;;;8419789;27;28240;-78
2022/10/22 13:19:10;;;;;;;;;;;;;;;;;;8419808;27;28590;-76
2022/10/22 13:23:11;;;;;;;;;;;;;;;;;;8424302;27;28612;-78
2022/10/22 13:27:11;;;;;;;;;;;;;;;;;;8419122;27;27379;-78
2022/10/22 13:31:11;;;;;;;;;;;;;;;;;;8417247;27;27483;-76
2022/10/22 13:35:11;;;;;;;;;;;;;;;;;;8422597;27;27501;-77
2022/10/22 13:39:11;;;;;;;;;;;;;;;;;;8430201;27;28518;-78
2022/10/22 13:43:11;;;;;;;;;;;;;;;;;;8429031;27;28537;-78
2022/10/22 13:47:11;;;;;;;;;;;;;;;;;;8426409;27;27705;-77
2022/10/22 13:51:12;;;;;;;;;;;;;;;;;;8421545;27;28114;-78
2022/10/22 13:55:12;;;;;;;;;;;;;;;;;;8431249;27;28708;-78
2022/10/22 13:59:12;;;;;;;;;;;;;;;;;;8424657;27;27367;-77
2022/10/22 14:03:12;;;;;;;;;;;;;;;;;;8429227;27;28181;-77
2022/10/22 14:07:12;;;;;;;;;;;;;;;;;;8424604;27;27846;-77
2022/10/22 14:11:12;;;;;;;;;;;;;;;;;;8425430;27;28781;-77
2022/10/22 14:15:13;;;;;;;;;;;;;;;;;;8424344;27;28304;-78
2022/10/22 14:19:13;;;;;;;;;;;;;;;;;;8434383;27;28569;-77
2022/10/22 14:23:13;;;;;;;;;;;;;;;;;;8426023;27;27083;-77
2022/10/22 14:27:13;;;;;;;;;;;;;;;;;;8422517;27;28480;-78
2022/10/22 14:31:13;;;;;;;;;;;;;;;;;;8425057;27;27375;-78
2022/10/22 14:35:13;;;;;;;;;;;;;;;;;;8426273;27;28507;-77
2022/10/22 14:39:14;;;;;;;;;;;;;;;;;;8422060;27;28386;-78
2022/10/22 14:43:14;;;;;;;;;;;;;;;;;;8424142;27;28219;-78
2022/10/22 14:47:14;;;;;;;;;;;;;;;;;;8420742;27;28201;-77
2022/10/22 14:51:14;;;;;;;;;;;;;;;;;;8427690;27;27591;-77
2022/10/22 14:55:14;;;;;;;;;;;;;;;;;;8422715;27;28301;-78
2022/10/22 14:59:14;;;;;;;;;;;;;;;;;;8422544;27;27434;-77
2022/10/22 15:03:14;;;;;;;;;;;;;;;;;;8428407;27;28695;-77
2022/10/22 15:07:15;;;;;;;;;;;;;;;;;;8428790;27;28164;-78
2022/10/22 15:11:15;;;;;;;;;;;;;;;;;;8423210;27;27428;-78
2022/10/22 15:15:15;;;;;;;;;;;;;;;;;;8436467;27;28197;-77
2022/10/22 15:19:15;;;;;;;;;;;;;;;;;;8423669;27;27742;-79
2022/10/22 15:23:15;;;;;;;;;;;;;;;;;;8427297;27;28224;-77
2022/10/22 15:27:15;;;;;;;;;;;;;;;;;;8419248;27;27613;-77
2022/10/22 15:31:15;;;;;;;;;;;;;;;;;;8420973;27;27167;-76
2022/10/22 15:35:16;;;;;;;;;;;;;;;;;;8423028;27;27740;-77
2022/10/22 15:39:16;;;;;;;;;;;;;;;;;;8429493;27;28541;-79
2022/10/22 15:43:16;;;;;;;;;;;;;;;;;;8423333;27;28249;-79
2022/10/22 15:47:16;;;;;;;;;;;;;;;;;;8430627;27;28072;-78
2022/10/22 15:51:17;;;;;;;;;;;;;;;;;;8426507;27;27232;-78
2022/10/22 15:55:17;;;;;;;;;;;;;;;;;;8430229;27;28628;-78
2022/10/22 15:59:17;;;;;;;;;;;;;;;;;;8424241;27;27411;-76
2022/10/22 16:03:17;;;;;;;;;;;;;;;;;;8420417;27;28376;-76
2022/10/22 16:07:18;;;;;;;;;;;;;;;;;;8425440;27;28300;-76
2022/10/22 16:11:18;;;;;;;;;;;;;;;;;;8421058;27;28742;-77
2022/10/22 16:15:18;;;;;;;;;;;;;;;;;;8420562;27;27317;-77
2022/10/22 16:19:19;;;;;;;;;;;;;;;;;;8420491;27;29213;-78
2022/10/22 16:23:19;;;;;;;;;;;;;;;;;;8414129;27;28938;-77
2022/10/22 16:27:19;;;;;;;;;;;;;;;;;;8420613;27;29328;-79
2022/10/22 16:31:20;;;;;;;;;;;;;;;;;;8417581;27;28556;-78
2022/10/22 16:35:20;;;;;;;;;;;;;;;;;;8420130;27;28095;-77
2022/10/22 16:39:20;;;;;;;;;;;;;;;;;;8421063;27;27423;-78
2022/10/22 16:43:20;;;;;;;;;;;;;;;;;;8419453;27;28379;-79
2022/10/22 16:47:20;;;;;;;;;;;;;;;;;;8424432;27;28772;-76
2022/10/22 16:51:20;;;;;;;;;;;;;;;;;;8426903;27;28326;-79
2022/10/22 16:55:20;;;;;;;;;;;;;;;;;;8429722;27;28088;-79
2022/10/22 16:59:21;;;;;;;;;;;;;;;;;;8427959;27;28461;-78
2022/10/22 17:03:21;;;;;;;;;;;;;;;;;;8427880;27;28444;-79
2022/10/22 17:07:21;;;;;;;;;;;;;;;;;;8431128;27;28526;-78
2022/10/22 17:11:21;;;;;;;;;;;;;;;;;;8442188;27;28782;-78
2022/10/22 17:15:21;;;;;;;;;;;;;;;;;;8442379;27;28172;-78
2022/10/22 17:19:21;;;;;;;;;;;;;;;;;;8452597;27;28280;-78
2022/10/22 17:23:22;;;;;;;;;;;;;;;;;;8444596;27;28667;-77
2022/10/22 17:27:22;;;;;;;;;;;;;;;;;;8434023;27;28453;-77
2022/10/22 17:31:22;;;;;;;;;;;;;;;;;;8425743;27;27464;-78
2022/10/22 17:35:22;;;;;;;;;;;;;;;;;;8422342;27;27728;-79
2022/10/22 17:39:22;;;;;;;;;;;;;;;;;;8422762;27;27732;-79
2022/10/22 17:43:22;;;;;;;;;;;;;;;;;;8422552;27;28968;-79
2022/10/22 17:47:22;;;;;;;;;;;;;;;;;;8425326;27;27955;-78
2022/10/22 17:51:23;;;;;;;;;;;;;;;;;;8422627;27;29356;-78
2022/10/22 17:55:23;;;;;;;;;;;;;;;;;;8425958;27;28376;-79
2022/10/22 17:59:24;;;;;;;;;;;;;;;;;;8429678;27;29432;-78
2022/10/22 18:03:26;;;;;;;;;;;;;;;;;;8431007;27;29689;-78
2022/10/22 18:07:26;;;;;;;;;;;;;;;;;;8430292;27;28406;-78
2022/10/22 18:11:27;;;;;;;;;;;;;;;;;;8431834;27;28468;-78
2022/10/22 18:15:27;;;;;;;;;;;;;;;;;;8428845;27;27401;-78
2022/10/22 18:19:27;;;;;;;;;;;;;;;;;;8425265;27;28240;-78
2022/10/22 18:23:27;;;;;;;;;;;;;;;;;;8424724;27;27414;-77
2022/10/22 18:27:27;;;;;;;;;;;;;;;;;;8423707;27;27356;-77
2022/10/22 18:31:29;;;;;;;;;;;;;;;;;;8428454;27;27415;-78
2022/10/22 18:35:29;;;;;;;;;;;;;;;;;;8434621;27;28460;-78
2022/10/22 18:39:29;;;;;;;;;;;;;;;;;;8433912;27;28921;-78
2022/10/22 18:43:29;;;;;;;;;;;;;;;;;;8431053;27;28280;-79
2022/10/22 18:47:29;;;;;;;;;;;;;;;;;;8431051;27;28466;-79
2022/10/22 18:51:30;;;;;;;;;;;;;;;;;;8429401;27;28499;-77
2022/10/22 18:55:30;;;;;;;;;;;;;;;;;;8431434;27;28006;-78
2022/10/22 18:59:30;;;;;;;;;;;;;;;;;;8428729;27;27097;-78
2022/10/22 19:03:30;;;;;;;;;;;;;;;;;;8426910;27;28177;-79
2022/10/22 19:07:30;;;;;;;;;;;;;;;;;;8425481;27;28038;-79
2022/10/22 19:11:31;;;;;;;;;;;;;;;;;;8425799;27;28178;-78
2022/10/22 19:15:31;;;;;;;;;;;;;;;;;;8425915;27;28045;-79
2022/10/22 19:19:31;;;;;;;;;;;;;;;;;;8422527;27;28492;-77
2022/10/22 19:23:31;;;;;;;;;;;;;;;;;;8427185;27;28504;-77
2022/10/22 19:27:31;;;;;;;;;;;;;;;;;;8427332;27;28578;-78
2022/10/22 19:31:31;;;;;;;;;;;;;;;;;;8425082;27;28365;-79
2022/10/22 19:35:32;;;;;;;;;;;;;;;;;;8418617;27;27301;-80
2022/10/22 19:39:32;;;;;;;;;;;;;;;;;;8404360;27;29388;-77
2022/10/22 19:43:32;;;;;;;;;;;;;;;;;;8423757;27;27400;-77
2022/10/22 19:47:32;;;;;;;;;;;;;;;;;;8421468;27;29622;-76
2022/10/22 19:51:33;;;;;;;;;;;;;;;;;;8423889;27;27584;-77
2022/10/22 19:55:33;;;;;;;;;;;;;;;;;;8421902;27;28449;-77
2022/10/22 19:59:33;;;;;;;;;;;;;;;;;;8423341;27;28192;-79
2022/10/22 20:03:35;;;;;;;;;;;;;;;;;;8422904;27;27449;-77
2022/10/22 20:07:35;;;;;;;;;;;;;;;;;;8426514;27;27567;-79
2022/10/22 20:11:35;;;;;;;;;;;;;;;;;;8420702;27;28266;-78
2022/10/22 20:15:35;;;;;;;;;;;;;;;;;;8421212;27;27554;-78
2022/10/22 20:19:35;;;;;;;;;;;;;;;;;;8425614;27;27398;-78
2022/10/22 20:23:35;;;;;;;;;;;;;;;;;;8418146;27;27482;-77
2022/10/22 20:27:35;;;;;;;;;;;;;;;;;;8423168;27;27227;-79
2022/10/22 20:31:36;;;;;;;;;;;;;;;;;;8419860;27;27428;-77
2022/10/22 20:35:36;;;;;;;;;;;;;;;;;;8425377;27;27859;-78
2022/10/22 20:39:36;;;;;;;;;;;;;;;;;;8425617;27;27476;-77
2022/10/22 20:43:36;;;;;;;;;;;;;;;;;;8419303;27;27494;-77
2022/10/22 20:47:36;;;;;;;;;;;;;;;;;;8422254;27;28187;-77
2022/10/22 20:51:36;;;;;;;;;;;;;;;;;;8423708;27;27350;-79
2022/10/22 20:55:36;;;;;;;;;;;;;;;;;;8419341;27;27526;-77
2022/10/22 20:59:37;;;;;;;;;;;;;;;;;;8416870;27;27567;-77
2022/10/22 21:03:37;;;;;;;;;;;;;;;;;;8423512;27;27238;-78
2022/10/22 21:07:37;;;;;;;;;;;;;;;;;;8421086;27;28630;-78
2022/10/22 21:11:37;;;;;;;;;;;;;;;;;;8426187;27;28164;-77
2022/10/22 21:15:37;;;;;;;;;;;;;;;;;;8423041;27;28026;-78
2022/10/22 21:19:37;;;;;;;;;;;;;;;;;;8419050;27;28913;-78
2022/10/22 21:23:37;;;;;;;;;;;;;;;;;;8416336;27;28535;-79
2022/10/22 21:27:38;;;;;;;;;;;;;;;;;;8430631;27;28061;-79
2022/10/22 21:31:39;;;;;;;;;;;;;;;;;;8423498;27;27320;-78
2022/10/22 21:35:39;;;;;;;;;;;;;;;;;;8423949;27;28477;-77
2022/10/22 21:39:39;;;;;;;;;;;;;;;;;;8426455;27;28574;-78
2022/10/22 21:43:39;;;;;;;;;;;;;;;;;;8428703;27;28256;-79
2022/10/22 21:47:39;;;;;;;;;;;;;;;;;;8429672;27;28542;-78
2022/10/22 21:51:39;;;;;;;;;;;;;;;;;;8428295;27;28025;-79
2022/10/22 21:55:40;;;;;;;;;;;;;;;;;;8431434;27;27691;-78
2022/10/22 21:59:40;;;;;;;;;;;;;;;;;;8438902;27;27495;-78
2022/10/22 22:03:40;;;;;;;;;;;;;;;;;;8428229;27;28538;-78
2022/10/22 22:07:40;;;;;;;;;;;;;;;;;;8430190;27;27400;-77
2022/10/22 22:11:40;;;;;;;;;;;;;;;;;;8430826;27;27973;-78
2022/10/22 22:15:40;;;;;;;;;;;;;;;;;;8441591;27;28372;-78
2022/10/22 22:19:40;;;;;;;;;;;;;;;;;;8437825;27;28513;-79
2022/10/22 22:23:41;;;;;;;;;;;;;;;;;;8431122;27;28129;-79
2022/10/22 22:27:41;;;;;;;;;;;;;;;;;;8425148;27;27356;-79
2022/10/22 22:31:42;;;;;;;;;;;;;;;;;;8427094;27;27672;-78
2022/10/22 22:35:42;;;;;;;;;;;;;;;;;;8431529;27;27512;-78
2022/10/22 22:39:42;;;;;;;;;;;;;;;;;;8442040;27;28475;-78
2022/10/22 22:43:42;;;;;;;;;;;;;;;;;;8445925;27;27220;-79
2022/10/22 22:47:42;;;;;;;;;;;;;;;;;;8441412;27;27297;-78
2022/10/22 22:51:43;;;;;;;;;;;;;;;;;;8443713;27;27360;-79
2022/10/22 22:55:43;;;;;;;;;;;;;;;;;;8444434;27;28309;-79
2022/10/22 22:59:43;;;;;;;;;;;;;;;;;;8437357;27;27224;-78
2022/10/22 23:03:43;;;;;;;;;;;;;;;;;;8442377;27;27734;-78
2022/10/22 23:07:43;;;;;;;;;;;;;;;;;;8439232;27;27379;-80
2022/10/22 23:11:43;;;;;;;;;;;;;;;;;;8450187;27;27392;-77
2022/10/22 23:15:43;;;;;;;;;;;;;;;;;;8458636;27;28376;-78
2022/10/22 23:19:44;;;;;;;;;;;;;;;;;;8448496;27;28979;-78
2022/10/22 23:23:44;;;;;;;;;;;;;;;;;;8429222;27;28059;-78
2022/10/22 23:27:44;;;;;;;;;;;;;;;;;;8423579;27;28835;-77
2022/10/22 23:31:44;;;;;;;;;;;;;;;;;;8428755;27;28616;-77
2022/10/22 23:35:44;;;;;;;;;;;;;;;;;;8427896;27;28184;-78
2022/10/22 23:39:44;;;;;;;;;;;;;;;;;;8424002;27;28547;-79
2022/10/22 23:43:44;;;;;;;;;;;;;;;;;;8425489;27;28485;-79
2022/10/22 23:47:45;;;;;;;;;;;;;;;;;;8420828;27;28531;-78
2022/10/22 23:51:45;;;;;;;;;;;;;;;;;;8421930;27;28256;-79
2022/10/22 23:55:45;;;;;;;;;;;;;;;;;;8423723;27;28386;-79
2022/10/22 23:59:45;;;;;;;;;;;;;;;;;;8420169;27;28179;-78
